createdAt,value
2022-08-02T03:37:10.916Z,0
2022-08-02T03:42:16.677Z,1.37
2022-08-02T03:47:18.750Z,1.37
2022-08-02T03:52:20.711Z,1.33
2022-08-02T03:57:22.429Z,1.33
2022-08-02T04:02:24.185Z,0
2022-08-02T04:12:31.782Z,0
2022-08-02T04:17:34.925Z,0
2022-08-02T04:22:39.093Z,0
2022-08-02T04:32:46.933Z,0
2022-08-02T04:42:55.247Z,0
2022-08-02T04:53:02.805Z,0
2022-08-02T05:03:10.291Z,0
2022-08-02T05:08:12.092Z,0
2022-08-02T05:13:13.829Z,0
2022-08-02T05:18:16.345Z,2.05
2022-08-02T05:23:18.218Z,2.05
2022-08-02T05:28:20.166Z,1.11
2022-08-02T05:33:21.759Z,1.11
2022-08-02T05:38:27.137Z,0
2022-08-02T05:43:31.137Z,0
2022-08-02T05:48:33.455Z,1
2022-08-02T05:53:36.934Z,1
2022-08-02T05:58:43.844Z,1.55
2022-08-02T06:03:50.432Z,1.47
2022-08-02T06:13:57.930Z,1.41
2022-08-02T06:19:00.231Z,1.41
2022-08-02T06:24:02.820Z,1.69
2022-08-02T06:29:05.581Z,1.69
2022-08-02T06:34:07.303Z,2.21
2022-08-02T06:39:13.793Z,2.21
2022-08-02T06:49:22.020Z,1.61
2022-08-02T06:54:23.848Z,1.78
2022-08-02T06:59:25.678Z,1.78
2022-08-02T07:04:27.467Z,1.5
2022-08-02T07:09:29.119Z,1.5
2022-08-02T07:14:36.336Z,1.72
2022-08-02T07:19:39.100Z,1.66
2022-08-02T07:24:40.781Z,1.66
2022-08-02T07:29:48.333Z,1.42
2022-08-02T07:34:56.046Z,1.42
2022-08-02T07:39:59.998Z,0
2022-08-02T07:45:02.439Z,0
2022-08-02T07:50:04.960Z,1.2
2022-08-02T07:55:07.097Z,1.2
2022-08-02T08:00:09.653Z,1.16
2022-08-02T08:05:12.696Z,1.16
2022-08-02T08:10:14.438Z,0
2022-08-02T08:15:16.138Z,0
2022-08-02T08:20:17.876Z,1.65
2022-08-02T08:25:20.341Z,1.65
2022-08-02T08:30:22.563Z,1.51
2022-08-02T08:35:24.296Z,2.06
2022-08-02T08:40:26.261Z,2.06
2022-08-02T08:45:28.014Z,1.22
2022-08-02T08:50:31.100Z,1.22
2022-08-02T08:55:33.718Z,0.97
2022-08-02T09:00:36.529Z,0.97
2022-08-02T09:05:38.991Z,0.96
2022-08-02T09:10:41.935Z,0.96
2022-08-02T09:15:44.957Z,1.63
2022-08-02T09:26:07.978Z,1.54
2022-08-02T09:31:11.126Z,1.54
2022-08-02T09:36:13.692Z,2.13
2022-08-02T09:41:20.359Z,2.13
2022-08-02T09:46:25.497Z,2.68
2022-08-02T09:51:28.190Z,2.62
2022-08-02T10:06:46.076Z,6.32
2022-08-02T10:11:47.962Z,3.94
2022-08-02T10:16:49.781Z,3.94
2022-08-02T10:21:56.139Z,1.52
2022-08-02T10:26:58.602Z,1.52
2022-08-02T10:32:01.378Z,1.29
2022-08-02T10:37:03.599Z,1.29
2022-08-02T10:42:05.480Z,2.68
2022-08-02T10:52:15.944Z,3.07
2022-08-02T10:57:19.513Z,1.69
2022-08-02T11:07:32.354Z,1.57
2022-08-02T11:22:45.741Z,1.62
2022-08-02T11:27:47.370Z,1.79
2022-08-02T11:32:49.668Z,1.79
2022-08-02T11:37:51.354Z,2.66
2022-08-02T11:42:54.769Z,2.66
2022-08-02T11:47:56.642Z,2.19
2022-08-02T11:52:58.930Z,2.19
2022-08-02T11:58:06.787Z,2.91
2022-08-02T12:03:08.855Z,2.64
2022-08-02T12:08:12.967Z,2.64
2022-08-02T12:13:15.191Z,2.07
2022-08-02T12:18:17.865Z,2.07
2022-08-02T12:23:19.644Z,3.41
2022-08-02T12:28:23.532Z,3.41
2022-08-02T12:33:27.542Z,2.12
2022-08-02T12:38:29.350Z,2.12
2022-08-02T12:43:31.025Z,2.17
2022-08-02T12:58:54.068Z,4.44
2022-08-02T13:09:02.475Z,5.91
2022-08-02T13:14:04.211Z,5.62
2022-08-02T13:19:05.992Z,3.79
2022-08-02T13:29:13.766Z,5.41
2022-08-02T13:34:15.624Z,5.41
2022-08-02T13:39:17.302Z,5.67
2022-08-02T13:44:19.017Z,5.67
2022-08-02T13:54:28.884Z,4.7
2022-08-02T14:04:36.640Z,3.31
2022-08-02T14:09:41.454Z,6
2022-08-02T14:14:43.265Z,6
2022-08-02T14:19:45.147Z,5.8
2022-08-02T14:24:46.817Z,7.08
2022-08-02T14:29:48.663Z,7.08
2022-08-02T14:34:50.410Z,3.19
2022-08-02T14:44:57.860Z,5.58
2022-08-02T14:50:00.316Z,5.58
2022-08-02T14:55:02.100Z,3.4
2022-08-02T15:00:04.935Z,3.4
2022-08-02T15:05:06.887Z,8.33
2022-08-02T15:10:08.907Z,8.33
2022-08-02T15:15:10.757Z,5.65
2022-08-02T15:25:18.501Z,3.43
2022-08-02T15:30:20.292Z,3.43
2022-08-02T15:35:22.064Z,0
2022-08-02T15:40:24.541Z,3.63
2022-08-02T15:45:26.343Z,3.63
2022-08-02T15:50:28.439Z,3.77
2022-08-02T16:00:36.325Z,3.69
2022-08-02T16:05:38.178Z,3.69
2022-08-02T16:10:40.191Z,2.71
2022-08-02T16:15:42.273Z,2.71
2022-08-02T16:20:44.024Z,4.16
2022-08-02T16:25:45.985Z,4.16
2022-08-02T16:35:53.434Z,4.95
2022-08-02T16:41:02.246Z,3.69
2022-08-02T16:46:03.983Z,2.32
2022-08-02T16:56:11.682Z,4.59
2022-08-02T17:01:14.119Z,4.59
2022-08-02T17:06:18.992Z,2.45
2022-08-02T17:11:24.521Z,2.45
2022-08-02T17:16:27.509Z,1.58
2022-08-02T17:21:30.347Z,1.58
2022-08-02T17:26:33.668Z,3.15
2022-08-02T17:36:41.390Z,3.06
2022-08-02T17:46:49.073Z,2.05
2022-08-02T17:56:58.167Z,0.99
2022-08-02T18:02:04.461Z,0
2022-08-02T18:07:11.080Z,0
2022-08-02T18:17:19.824Z,0
2022-08-02T18:27:27.237Z,0
2022-08-02T18:42:41.677Z,0
2022-08-02T18:52:49.105Z,0
2022-08-02T19:02:57.757Z,0
2022-08-02T19:07:59.530Z,0
2022-08-02T19:13:01.678Z,0
2022-08-02T19:18:04.785Z,1.04
2022-08-02T19:23:07.722Z,1.04
2022-08-02T19:28:11.296Z,0.81
2022-08-02T19:38:20.218Z,1.18
2022-08-02T19:48:31.128Z,1.93
2022-08-02T20:13:55.840Z,2.3
2022-08-02T20:18:58.117Z,2.3
2022-08-02T20:24:00.128Z,0
2022-08-02T20:29:04.108Z,0
2022-08-02T20:34:08.549Z,0
2022-08-02T20:39:12.135Z,0
2022-08-02T20:54:30.585Z,0
2022-08-02T20:59:32.297Z,0
2022-08-02T21:04:36.502Z,0
2022-08-02T21:19:50.715Z,0
2022-08-02T21:24:53.314Z,0
2022-08-02T21:29:58.411Z,0
2022-08-02T21:35:00.233Z,0
2022-08-02T21:40:02.164Z,0
